createdAt,value
2016-11-09T00:00:26.025Z,0
2016-11-09T00:05:25.672Z,0
2016-11-09T00:10:25.929Z,0
2016-11-09T00:15:25.857Z,0
2016-11-09T00:20:25.805Z,0
2016-11-09T00:25:25.443Z,0
2016-11-09T00:30:25.696Z,0
2016-11-09T00:35:25.330Z,0
2016-11-09T00:40:25.278Z,0
2016-11-09T00:45:25.524Z,0
2016-11-09T00:50:25.476Z,0
2016-11-09T00:55:25.108Z,0
2016-11-09T01:00:25.362Z,0
2016-11-09T01:05:25.310Z,0
2016-11-09T01:10:24.957Z,0
2016-11-09T01:15:24.586Z,0
2016-11-09T01:20:24.833Z,0
2016-11-09T01:25:24.781Z,0
2016-11-09T01:30:24.723Z,0
2016-11-09T01:35:24.671Z,0
2016-11-09T01:40:24.606Z,0
2016-11-09T01:45:24.857Z,0
2016-11-09T01:50:24.805Z,0
2016-11-09T01:55:24.445Z,0
2016-11-09T02:00:24.085Z,0
2016-11-09T02:05:24.324Z,0
2016-11-09T02:10:24.577Z,0
2016-11-09T02:15:23.915Z,0
2016-11-09T02:20:24.463Z,0
2016-11-09T02:25:24.403Z,0
2016-11-09T02:30:24.357Z,0
2016-11-09T02:35:23.981Z,0
2016-11-09T02:40:24.231Z,0
2016-11-09T02:45:24.184Z,0
2016-11-09T02:50:23.810Z,0
2016-11-09T02:55:23.756Z,0
2016-11-09T03:00:23.692Z,0
2016-11-09T03:05:23.638Z,0
2016-11-09T03:10:23.886Z,0
2016-11-09T03:15:23.526Z,0
2016-11-09T03:20:23.466Z,0
2016-11-09T03:25:23.710Z,0
2016-11-09T03:30:23.046Z,0
2016-11-09T03:35:23.291Z,0
2016-11-09T03:40:22.932Z,0
2016-11-09T03:45:23.174Z,0
2016-11-09T03:50:23.117Z,0
2016-11-09T03:55:23.057Z,0
2016-11-09T04:00:23.009Z,0
2016-11-09T04:05:22.950Z,0
2016-11-09T04:10:22.891Z,0
2016-11-09T04:15:23.161Z,0
2016-11-09T04:20:23.121Z,0
2016-11-09T04:25:22.717Z,0
2016-11-09T04:30:22.357Z,0
2016-11-09T04:35:22.587Z,0
2016-11-09T04:40:22.837Z,0
2016-11-09T04:45:22.171Z,0
2016-11-09T04:50:22.414Z,0
2016-11-09T04:55:22.049Z,0
2016-11-09T05:00:22.323Z,0
2016-11-09T05:05:22.544Z,0
2016-11-09T05:10:22.184Z,0
2016-11-09T05:15:22.424Z,0
2016-11-09T05:20:22.371Z,0
2016-11-09T05:25:22.305Z,0
2016-11-09T05:30:22.255Z,0
2016-11-09T05:35:21.889Z,0
2016-11-09T05:40:22.127Z,0
2016-11-09T05:45:22.066Z,0
2016-11-09T05:50:21.397Z,0
2016-11-09T05:55:21.950Z,0
2016-11-09T06:00:21.276Z,0
2016-11-09T06:05:21.826Z,0
2016-11-09T06:10:21.466Z,0
2016-11-09T06:15:21.104Z,0
2016-11-09T06:20:21.660Z,0
2016-11-09T06:25:21.592Z,0
2016-11-09T06:30:21.226Z,0
2016-11-09T06:35:21.174Z,0
2016-11-09T06:40:21.112Z,0
2016-11-09T06:45:21.356Z,0
2016-11-09T06:50:20.989Z,0
2016-11-09T06:55:21.248Z,0
2016-11-09T07:00:20.567Z,0
2016-11-09T07:05:21.068Z,0
2016-11-09T07:10:20.757Z,0
2016-11-09T07:15:21.006Z,0
2016-11-09T07:20:20.996Z,0
2016-11-09T07:25:20.622Z,8
2016-11-09T07:30:20.533Z,12
2016-11-09T07:35:20.471Z,12
2016-11-09T07:40:20.428Z,12
2016-11-09T07:45:20.665Z,16
2016-11-09T07:50:20.303Z,16
2016-11-09T07:55:20.559Z,16
2016-11-09T08:00:20.495Z,20
2016-11-09T08:05:20.145Z,20
2016-11-09T08:10:20.403Z,24
2016-11-09T08:15:20.349Z,24
2016-11-09T08:20:19.979Z,28
2016-11-09T08:25:19.933Z,28
2016-11-09T08:30:19.863Z,24
2016-11-09T14:41:59.357Z,8
2016-11-09T14:46:58.979Z,8
2016-11-09T14:51:58.916Z,8
2016-11-09T14:56:58.550Z,8
2016-11-09T15:01:58.794Z,8
2016-11-09T15:06:58.737Z,8
2016-11-09T15:11:58.688Z,4
2016-11-09T15:16:58.640Z,8
2016-11-09T15:21:58.897Z,4
2016-11-09T15:26:58.829Z,4
2016-11-09T15:31:58.773Z,4
2016-11-09T15:36:58.417Z,4
2016-11-09T15:41:58.067Z,4
2016-11-09T15:46:58.623Z,4
2016-11-09T15:51:58.575Z,4
2016-11-09T15:56:58.249Z,4
2016-11-09T16:01:58.179Z,0
2016-11-09T16:06:57.827Z,0
2016-11-09T16:11:58.383Z,0
2016-11-09T16:16:57.717Z,0
2016-11-09T16:21:57.982Z,4
2016-11-09T16:26:57.925Z,4
2016-11-09T16:31:57.875Z,0
2016-11-09T16:36:57.517Z,4
2016-11-09T16:41:57.777Z,4
2016-11-09T16:46:58.041Z,4
2016-11-09T16:51:57.980Z,4
2016-11-09T16:56:57.939Z,4
2016-11-09T17:01:57.271Z,4
2016-11-09T17:06:57.823Z,4
2016-11-09T17:11:57.471Z,4
2016-11-09T17:16:57.417Z,4
2016-11-09T17:21:57.689Z,4
2016-11-09T17:26:57.011Z,4
2016-11-09T17:31:56.646Z,4
2016-11-09T17:36:57.528Z,4
2016-11-09T17:41:57.157Z,4
2016-11-09T17:46:57.117Z,4
2016-11-09T17:51:57.366Z,4
2016-11-09T17:56:57.019Z,4
2016-11-09T18:01:56.960Z,4
2016-11-09T18:06:56.601Z,4
2016-11-09T18:11:56.548Z,4
2016-11-09T18:16:56.810Z,4
2016-11-09T18:21:56.786Z,4
2016-11-09T18:26:57.008Z,8
2016-11-09T18:31:56.348Z,4
2016-11-09T18:36:56.937Z,4
2016-11-09T18:41:56.871Z,4
2016-11-09T18:46:56.522Z,0
2016-11-09T18:51:56.465Z,4
2016-11-09T18:56:56.741Z,4
2016-11-09T19:01:56.668Z,4
2016-11-09T19:06:56.317Z,4
2016-11-09T19:11:56.265Z,4
2016-11-09T19:16:56.533Z,4
2016-11-09T19:21:56.179Z,4
2016-11-09T19:26:56.134Z,4
2016-11-09T19:31:55.768Z,4
2016-11-09T19:36:56.345Z,4
2016-11-09T19:41:55.984Z,4
2016-11-09T19:46:56.245Z,4
2016-11-09T19:51:55.903Z,4
2016-11-09T19:56:55.843Z,4
2016-11-09T20:01:55.488Z,4
2016-11-09T20:06:55.769Z,4
2016-11-09T20:11:55.385Z,4
2016-11-09T20:16:55.640Z,4
2016-11-09T20:21:55.609Z,4
2016-11-09T20:26:55.872Z,4
2016-11-09T20:31:55.201Z,4
2016-11-09T20:36:55.767Z,4
2016-11-09T20:41:55.408Z,4
2016-11-09T20:46:55.673Z,4
2016-11-09T20:51:55.320Z,4
2016-11-09T20:56:55.260Z,4
2016-11-09T21:01:54.903Z,4
2016-11-09T21:06:55.153Z,4
2016-11-09T21:11:55.423Z,4
2016-11-09T21:16:55.069Z,4
2016-11-09T21:21:55.312Z,4
2016-11-09T21:26:55.267Z,4
2016-11-09T21:31:54.619Z,4
2016-11-09T21:36:55.190Z,4
2016-11-09T21:41:54.804Z,4
2016-11-09T21:46:55.064Z,4
2016-11-09T21:51:55.033Z,4
2016-11-09T21:56:54.682Z,4
2016-11-09T22:01:54.634Z,4
2016-11-09T22:06:54.876Z,4
2016-11-09T22:11:54.834Z,4
2016-11-09T22:16:54.765Z,4
2016-11-09T22:21:54.404Z,4
2016-11-09T22:26:54.661Z,4
2016-11-09T22:31:54.040Z,4
2016-11-09T22:36:54.592Z,4
2016-11-09T22:41:54.198Z,4
2016-11-09T22:46:54.459Z,0
2016-11-09T22:51:54.103Z,0
2016-11-09T22:56:54.351Z,0
2016-11-09T23:01:54.305Z,0
2016-11-09T23:06:53.945Z,0
2016-11-09T23:11:54.205Z,0
2016-11-09T23:16:54.147Z,0
2016-11-09T23:21:53.821Z,0
2016-11-09T23:26:54.041Z,0
2016-11-09T23:31:54.001Z,0
2016-11-09T23:36:53.651Z,0
2016-11-09T23:41:53.601Z,0
2016-11-09T23:46:53.847Z,0
2016-11-09T23:51:53.786Z,0
2016-11-09T23:56:53.431Z,0
